createdAt,value
2018-10-11T00:00:17.455Z,35.40
2018-10-11T00:02:49.636Z,37.55
2018-10-11T00:05:20.971Z,36.96
2018-10-11T00:07:52.734Z,34.67
2018-10-11T00:10:23.191Z,38.40
2018-10-11T00:12:53.511Z,34.13
2018-10-11T00:15:23.715Z,39.67
2018-10-11T00:17:54.090Z,33.07
2018-10-11T00:20:25.320Z,36.20
2018-10-11T00:22:58.419Z,33.90
2018-10-11T00:25:28.544Z,35.40
2018-10-11T00:27:58.571Z,34.97
2018-10-11T00:30:29.935Z,36.47
2018-10-11T00:33:00.194Z,34.63
2018-10-11T00:35:31.275Z,36.12
2018-10-11T00:38:02.093Z,41.08
2018-10-11T00:40:33.084Z,32.08
2018-10-11T00:43:04.303Z,32.98
2018-10-11T00:45:35.760Z,32.56
2018-10-11T00:48:05.835Z,32.07
2018-10-11T00:51:41.213Z,33.18
2018-10-11T00:54:11.932Z,35.40
2018-10-11T00:56:42.418Z,36.07
2018-10-11T00:59:12.997Z,31.60
2018-10-11T01:01:43.390Z,33.87
2018-10-11T01:04:13.523Z,31.07
2018-10-11T01:06:43.997Z,31.13
2018-10-11T01:09:14.059Z,36.53
2018-10-11T01:11:44.142Z,34.67
2018-10-11T01:14:14.183Z,32.93
2018-10-11T01:16:44.060Z,30.07
2018-10-11T01:19:13.999Z,32.70
2018-10-11T01:21:43.958Z,31.03
2018-10-11T01:24:14.027Z,33.67
2018-10-11T01:26:44.142Z,37.57
2018-10-11T01:29:14.196Z,33.43
2018-10-11T01:31:44.488Z,29.10
2018-10-11T01:34:14.681Z,29.80
2018-10-11T01:36:44.856Z,33.27
2018-10-11T01:39:14.866Z,33.00
2018-10-11T01:41:44.865Z,31.50
2018-10-11T01:44:14.987Z,31.10
2018-10-11T01:46:44.968Z,29.77
2018-10-11T01:49:15.367Z,29.83
2018-10-11T01:51:45.614Z,33.80
2018-10-11T01:54:15.819Z,31.67
2018-10-11T01:56:45.857Z,31.07
2018-10-11T01:59:15.836Z,31.90
2018-10-11T02:01:45.859Z,31.27
2018-10-11T02:04:15.805Z,33.23
2018-10-11T02:06:46.284Z,32.17
2018-10-11T02:09:16.211Z,31.60
2018-10-11T02:11:46.053Z,30.17
2018-10-11T02:14:16.083Z,31.03
2018-10-11T02:16:45.933Z,34.23
2018-10-11T02:19:15.923Z,34.67
2018-10-11T02:21:45.809Z,31.80
2018-10-11T02:24:15.806Z,34.73
2018-10-11T02:26:45.828Z,36.63
2018-10-11T02:29:15.723Z,40.00
2018-10-11T02:31:46.597Z,48.30
2018-10-11T02:34:17.510Z,33.30
2018-10-11T02:36:48.744Z,35.43
2018-10-11T02:39:18.918Z,36.27
2018-10-11T02:41:49.032Z,35.47
2018-10-11T02:44:19.076Z,39.13
2018-10-11T02:46:49.463Z,34.67
2018-10-11T02:49:19.927Z,35.73
2018-10-11T02:51:49.947Z,38.33
2018-10-11T02:54:19.891Z,36.60
2018-10-11T02:56:50.044Z,35.33
2018-10-11T02:59:29.341Z,36.00
2018-10-11T03:01:59.555Z,38.13
2018-10-11T03:04:32.532Z,34.27
2018-10-11T03:07:03.397Z,35.90
2018-10-11T03:09:33.933Z,36.50
2018-10-11T03:12:03.843Z,34.73
2018-10-11T03:14:33.689Z,38.30
2018-10-11T03:17:03.907Z,32.00
2018-10-11T03:19:33.785Z,34.67
2018-10-11T03:22:03.855Z,36.70
2018-10-11T03:24:33.837Z,39.30
2018-10-11T03:27:03.708Z,39.33
2018-10-11T03:29:33.876Z,40.30
2018-10-11T03:32:03.685Z,36.83
2018-10-11T03:34:33.962Z,36.43
2018-10-11T03:37:03.961Z,35.77
2018-10-11T03:39:33.789Z,34.80
2018-10-11T03:42:03.844Z,34.13
2018-10-11T03:44:33.761Z,35.00
2018-10-11T03:47:03.777Z,36.67
2018-10-11T03:49:33.982Z,37.88
2018-10-11T03:52:03.961Z,38.28
2018-10-11T03:54:34.331Z,33.70
2018-10-11T03:57:04.501Z,37.45
2018-10-11T03:59:34.808Z,36.93
2018-10-11T04:02:04.782Z,44.50
2018-10-11T04:04:34.701Z,38.77
2018-10-11T04:07:04.638Z,35.03
2018-10-11T04:09:34.543Z,35.93
2018-10-11T04:12:04.611Z,34.17
2018-10-11T04:14:34.553Z,35.07
2018-10-11T04:17:04.324Z,37.27
2018-10-11T04:19:34.308Z,39.23
2018-10-11T04:22:04.132Z,38.63
2018-10-11T04:24:34.042Z,37.77
2018-10-11T04:27:04.504Z,41.27
2018-10-11T04:29:34.449Z,39.73
2018-10-11T04:32:04.954Z,42.77
2018-10-11T04:34:35.746Z,42.80
2018-10-11T04:37:06.789Z,38.73
2018-10-11T04:39:37.649Z,38.10
2018-10-11T04:42:09.053Z,48.87
2018-10-11T04:44:39.629Z,44.25
2018-10-11T04:47:10.890Z,43.60
2018-10-11T04:49:41.853Z,49.63
2018-10-11T04:52:12.831Z,44.33
2018-10-11T04:54:45.366Z,48.18
2018-10-11T04:57:15.967Z,44.53
2018-10-11T04:59:45.875Z,49.63
2018-10-11T05:02:16.874Z,49.80
2018-10-11T05:04:47.762Z,49.53
2018-10-11T05:07:18.801Z,46.77
2018-10-11T05:09:49.624Z,48.05
2018-10-11T05:12:20.849Z,47.40
2018-10-11T05:14:52.378Z,48.60
2018-10-11T05:17:22.890Z,45.70
2018-10-11T05:19:53.801Z,50.50
2018-10-11T05:22:24.913Z,53.38
2018-10-11T05:24:55.763Z,47.10
2018-10-11T05:27:26.750Z,49.05
2018-10-11T05:29:57.844Z,45.80
2018-10-11T05:32:29.072Z,49.00
2018-10-11T05:34:59.777Z,45.38
2018-10-11T05:37:30.819Z,48.73
2018-10-11T05:40:02.046Z,47.00
2018-10-11T05:42:33.193Z,58.15
2018-10-11T05:45:22.451Z,63.13
2018-10-11T05:47:52.698Z,51.30
2018-10-11T05:50:22.928Z,49.20
2018-10-11T05:52:53.505Z,47.90
2018-10-11T05:55:23.847Z,51.20
2018-10-11T05:57:54.013Z,52.70
2018-10-11T06:00:24.427Z,51.10
2018-10-11T06:03:00.883Z,53.58
2018-10-11T06:05:31.908Z,53.37
2018-10-11T06:08:02.863Z,53.97
2018-10-11T06:10:36.622Z,57.30
2018-10-11T06:13:07.719Z,58.07
2018-10-11T06:15:38.125Z,64.87
2018-10-11T06:18:08.434Z,56.37
2018-10-11T06:20:38.828Z,60.63
2018-10-11T06:23:08.750Z,60.40
2018-10-11T06:25:38.787Z,54.50
2018-10-11T06:28:09.565Z,55.80
2018-10-11T06:30:39.761Z,65.10
2018-10-11T06:33:09.931Z,71.27
2018-10-11T06:35:40.277Z,73.90
2018-10-11T06:38:10.547Z,72.97
2018-10-11T06:40:40.924Z,67.42
2018-10-11T06:43:11.037Z,73.33
2018-10-11T06:45:41.340Z,68.07
2018-10-11T06:48:11.638Z,65.67
2018-10-11T06:50:43.438Z,64.63
2018-10-11T06:53:14.175Z,65.50
2018-10-11T06:55:44.393Z,66.53
2018-10-11T06:58:14.311Z,68.33
2018-10-11T07:00:46.358Z,67.53
2018-10-11T07:03:16.203Z,70.55
2018-10-11T07:05:46.110Z,65.97
2018-10-11T07:08:16.673Z,64.62
2018-10-11T07:10:46.800Z,68.13
2018-10-11T07:13:16.698Z,63.83
2018-10-11T07:15:46.507Z,61.17
2018-10-11T07:18:16.440Z,69.33
2018-10-11T07:20:46.465Z,68.47
2018-10-11T07:23:16.304Z,62.23
2018-10-11T07:25:46.773Z,63.94
2018-10-11T07:28:16.869Z,60.50
2018-10-11T07:30:46.930Z,61.20
2018-10-11T07:33:16.869Z,61.00
2018-10-11T07:35:47.709Z,62.20
2018-10-11T07:38:18.666Z,60.70
2018-10-11T07:40:49.788Z,59.05
2018-10-11T07:43:20.852Z,58.55
2018-10-11T07:45:51.715Z,61.92
2018-10-11T07:48:23.003Z,55.12
2018-10-11T07:50:53.651Z,63.08
2018-10-11T07:53:24.759Z,68.52
2018-10-11T07:55:55.846Z,61.08
2018-10-11T07:58:26.984Z,59.73
2018-10-11T08:00:57.565Z,46.68
2018-10-11T08:03:28.534Z,58.40
2018-10-11T08:05:59.481Z,49.88
2018-10-11T08:08:30.486Z,47.20
2018-10-11T08:11:01.623Z,38.08
2018-10-11T08:13:32.999Z,49.05
2018-10-11T08:16:03.819Z,45.20
2018-10-11T08:18:34.762Z,42.70
2018-10-11T08:21:04.922Z,48.33
2018-10-11T08:23:35.836Z,47.30
2018-10-11T08:26:06.824Z,44.30
2018-10-11T08:28:37.727Z,50.05
2018-10-11T08:31:09.516Z,42.17
2018-10-11T08:33:39.416Z,44.20
2018-10-11T08:36:10.812Z,51.00
2018-10-11T08:38:42.014Z,40.33
2018-10-11T08:41:12.746Z,50.35
2018-10-11T08:43:43.727Z,41.85
2018-10-11T08:46:14.732Z,42.40
2018-10-11T08:48:46.056Z,42.58
2018-10-11T08:51:16.677Z,40.50
2018-10-11T08:53:46.994Z,41.53
2018-10-11T08:56:18.397Z,38.90
2018-10-11T08:58:48.779Z,43.20
2018-10-11T09:01:19.603Z,37.17
2018-10-11T09:03:50.624Z,34.45
2018-10-11T09:06:21.552Z,34.80
2018-10-11T09:08:52.577Z,36.90
2018-10-11T09:11:23.537Z,35.58
2018-10-11T09:13:54.643Z,36.83
2018-10-11T09:16:25.464Z,34.53
2018-10-11T09:18:56.461Z,30.72
2018-10-11T09:21:27.707Z,31.48
2018-10-11T09:23:58.672Z,38.63
2018-10-11T09:26:29.547Z,35.92
2018-10-11T09:29:00.579Z,34.05
2018-10-11T09:31:31.444Z,35.60
2018-10-11T09:34:02.896Z,30.56
2018-10-11T09:36:33.692Z,33.67
2018-10-11T09:39:05.833Z,33.25
2018-10-11T09:41:35.616Z,28.63
2018-10-11T09:44:06.570Z,30.05
2018-10-11T09:46:37.701Z,26.73
2018-10-11T09:49:08.832Z,29.75
2018-10-11T09:51:39.842Z,30.32
2018-10-11T09:54:10.897Z,28.67
2018-10-11T09:57:21.934Z,26.00
2018-10-11T09:59:51.945Z,26.63
2018-10-11T10:02:22.221Z,26.97
2018-10-11T10:04:53.429Z,26.37
2018-10-11T10:07:23.503Z,30.00
2018-10-11T10:09:57.888Z,26.20
2018-10-11T10:12:33.135Z,29.17
2018-10-11T10:15:03.741Z,26.67
2018-10-11T10:17:33.637Z,27.87
2018-10-11T10:20:04.153Z,26.90
2018-10-11T10:22:33.982Z,26.77
2018-10-11T10:25:03.912Z,25.77
2018-10-11T10:27:33.787Z,23.63
2018-10-11T10:30:08.585Z,28.87
2018-10-11T10:32:38.712Z,25.30
2018-10-11T10:35:08.684Z,24.83
2018-10-11T10:37:38.746Z,23.37
2018-10-11T10:40:08.943Z,30.80
2018-10-11T10:42:38.745Z,19.93
2018-10-11T10:45:08.934Z,22.57
2018-10-11T10:47:38.721Z,28.90
2018-10-11T10:50:08.996Z,25.17
2018-10-11T10:52:38.813Z,22.43
2018-10-11T10:55:08.774Z,23.67
2018-10-11T10:57:38.809Z,20.97
2018-10-11T11:00:09.658Z,19.57
2018-10-11T11:02:39.777Z,20.20
2018-10-11T11:05:09.654Z,19.17
2018-10-11T11:07:39.745Z,18.30
2018-10-11T11:10:09.857Z,19.83
2018-10-11T11:12:39.670Z,22.77
2018-10-11T11:15:09.758Z,25.30
2018-10-11T11:17:39.590Z,21.53
2018-10-11T11:20:09.744Z,20.77
2018-10-11T11:22:39.700Z,18.43
2018-10-11T11:25:09.745Z,17.93
2018-10-11T11:27:39.685Z,18.17
2018-10-11T11:30:09.673Z,21.70
2018-10-11T11:32:39.717Z,14.67
2018-10-11T11:35:09.673Z,20.77
2018-10-11T11:37:39.681Z,18.10
2018-10-11T11:40:09.891Z,17.70
2018-10-11T11:42:39.865Z,21.00
2018-10-11T11:45:10.460Z,19.00
2018-10-11T11:47:40.515Z,18.07
2018-10-11T11:50:10.681Z,17.42
2018-10-11T11:52:40.677Z,17.60
2018-10-11T11:55:10.883Z,16.62
2018-10-11T11:57:41.202Z,18.73
2018-10-11T12:00:11.166Z,20.40
2018-10-11T12:02:41.117Z,18.80
2018-10-11T12:05:11.243Z,17.83
2018-10-11T12:07:41.152Z,15.43
2018-10-11T12:10:11.216Z,17.37
2018-10-11T12:15:37.561Z,17.13
2018-10-11T12:18:08.422Z,14.80
2018-10-11T12:20:39.745Z,18.48
2018-10-11T12:23:10.667Z,20.50
2018-10-11T12:25:40.911Z,17.83
2018-10-11T12:28:10.770Z,13.37
2018-10-11T12:30:40.761Z,12.77
2018-10-11T12:33:10.623Z,18.03
2018-10-11T12:35:40.520Z,13.87
2018-10-11T12:38:10.715Z,11.37
2018-10-11T12:40:40.640Z,9.47
2018-10-11T12:43:10.569Z,10.23
2018-10-11T12:45:42.375Z,13.67
2018-10-11T12:48:12.186Z,10.80
2018-10-11T12:50:42.235Z,13.40
2018-10-11T12:53:12.210Z,12.57
2018-10-11T12:55:42.271Z,12.30
2018-10-11T12:58:12.045Z,10.30
2018-10-11T13:00:42.012Z,11.93
2018-10-11T13:03:11.897Z,14.90
2018-10-11T13:05:41.880Z,14.37
2018-10-11T13:08:11.771Z,15.15
2018-10-11T13:10:41.673Z,10.77
2018-10-11T13:13:12.293Z,11.80
2018-10-11T13:15:42.396Z,17.12
2018-10-11T13:18:12.401Z,13.97
2018-10-11T13:20:42.233Z,12.70
2018-10-11T13:23:15.753Z,13.20
2018-10-11T13:25:42.057Z,17.87
2018-10-11T13:28:12.324Z,14.45
2018-10-11T13:30:42.093Z,15.60
2018-10-11T13:33:12.395Z,20.45
2018-10-11T13:35:42.181Z,13.73
2018-10-11T13:38:12.149Z,16.87
2018-10-11T13:40:42.613Z,16.64
2018-10-11T13:43:12.701Z,16.97
2018-10-11T13:45:42.392Z,12.70
2018-10-11T13:48:12.351Z,13.50
2018-10-11T13:50:42.703Z,15.73
2018-10-11T13:53:17.018Z,11.33
2018-10-11T13:55:50.831Z,12.35
2018-10-11T13:58:15.609Z,10.95
2018-10-11T14:00:47.337Z,15.58
2018-10-11T14:03:17.659Z,14.84
2018-10-11T14:05:48.537Z,14.45
2018-10-11T14:08:19.364Z,14.75
2018-10-11T14:10:50.674Z,13.14
2018-10-11T14:13:21.429Z,11.73
2018-10-11T14:15:53.044Z,12.52
2018-10-11T14:18:23.558Z,13.38
2018-10-11T14:20:54.897Z,11.40
2018-10-11T14:23:25.472Z,9.08
2018-10-11T14:25:56.506Z,13.95
2018-10-11T14:28:27.317Z,8.53
2018-10-11T14:30:58.749Z,11.70
2018-10-11T14:33:29.577Z,13.68
2018-10-11T14:36:00.684Z,13.88
2018-10-11T14:38:31.953Z,11.03
2018-10-11T14:41:02.705Z,13.65
2018-10-11T14:43:33.515Z,7.90
2018-10-11T14:46:04.604Z,10.18
2018-10-11T14:48:35.336Z,12.68
2018-10-11T14:51:06.881Z,9.62
2018-10-11T14:53:37.761Z,13.62
2018-10-11T14:56:08.833Z,15.78
2018-10-11T14:58:39.641Z,14.23
2018-10-11T15:01:10.875Z,32.63
2018-10-11T15:03:41.547Z,36.63
2018-10-11T15:06:12.556Z,29.63
2018-10-11T15:08:43.382Z,23.02
2018-10-11T15:11:14.758Z,17.22
2018-10-11T15:13:45.727Z,18.05
2018-10-11T15:16:16.638Z,20.12
2018-10-11T15:18:47.473Z,20.45
2018-10-11T15:21:18.521Z,21.90
2018-10-11T15:23:49.460Z,26.48
2018-10-11T15:26:20.516Z,19.50
2018-10-11T15:28:51.367Z,15.00
2018-10-11T15:31:22.902Z,10.98
2018-10-11T15:33:53.522Z,9.58
2018-10-11T15:36:24.537Z,15.20
2018-10-11T15:38:56.243Z,10.08
2018-10-11T15:41:26.893Z,10.80
2018-10-11T15:43:57.554Z,10.50
2018-10-11T15:46:28.550Z,9.63
2018-10-11T15:48:59.480Z,11.30
2018-10-11T15:51:32.322Z,12.63
2018-10-11T15:54:02.061Z,12.83
2018-10-11T15:56:32.794Z,11.00
2018-10-11T15:59:03.738Z,11.28
2018-10-11T16:01:34.684Z,10.93
2018-10-11T16:04:05.548Z,17.80
2018-10-11T16:06:36.342Z,10.82
2018-10-11T16:09:09.436Z,16.26
2018-10-11T16:11:39.340Z,12.77
2018-10-11T16:14:10.033Z,11.60
2018-10-11T16:16:40.665Z,8.95
2018-10-11T16:19:11.422Z,14.25
2018-10-11T16:21:42.756Z,12.62
2018-10-11T16:24:13.620Z,14.43
2018-10-11T16:26:44.590Z,17.85
2018-10-11T16:29:15.344Z,18.10
2018-10-11T16:31:46.748Z,19.16
2018-10-11T16:34:17.521Z,18.67
2018-10-11T16:36:48.418Z,16.02
2018-10-11T16:39:19.767Z,16.54
2018-10-11T16:41:50.726Z,14.47
2018-10-11T16:44:22.426Z,14.00
2018-10-11T16:46:52.323Z,19.60
2018-10-11T16:49:23.801Z,17.70
2018-10-11T16:51:54.708Z,15.05
2018-10-11T16:54:25.533Z,14.63
2018-10-11T16:56:58.341Z,13.48
2018-10-11T16:59:28.241Z,21.63
2018-10-11T17:01:58.818Z,23.80
2018-10-11T17:04:29.694Z,27.67
2018-10-11T17:07:00.587Z,52.25
2018-10-11T17:09:31.552Z,48.33
2018-10-11T17:12:02.394Z,41.00
2018-10-11T17:14:33.873Z,40.78
2018-10-11T17:17:04.528Z,39.70
2018-10-11T17:19:35.486Z,53.60
2018-10-11T17:22:06.479Z,46.68
2018-10-11T17:24:37.560Z,29.90
2018-10-11T17:27:08.498Z,28.25
2018-10-11T17:29:39.459Z,28.40
2018-10-11T17:32:10.434Z,34.88
2018-10-11T17:34:41.938Z,34.96
2018-10-11T17:37:12.660Z,23.57
2018-10-11T17:39:43.650Z,23.27
2018-10-11T17:42:14.554Z,18.30
2018-10-11T17:44:45.646Z,17.02
2018-10-11T17:47:15.651Z,21.63
2018-10-11T17:49:46.556Z,18.30
2018-10-11T17:52:17.653Z,27.40
2018-10-11T17:54:52.659Z,25.10
2018-10-11T17:57:22.563Z,21.40
2018-10-11T17:59:52.458Z,28.67
2018-10-11T18:02:23.138Z,29.70
2018-10-11T18:04:55.689Z,28.17
2018-10-11T18:07:25.593Z,26.27
2018-10-11T18:09:55.413Z,41.65
2018-10-11T18:12:25.767Z,79.00
2018-10-11T18:14:56.655Z,72.25
2018-10-11T18:17:27.490Z,44.67
2018-10-11T18:20:00.055Z,35.47
2018-10-11T18:22:30.577Z,33.17
2018-10-11T18:25:00.500Z,23.05
2018-10-11T18:27:31.480Z,19.05
2018-10-11T18:30:03.249Z,15.32
2018-10-11T18:32:33.802Z,21.96
2018-10-11T18:35:04.848Z,20.52
2018-10-11T18:37:35.949Z,18.32
2018-10-11T18:40:07.316Z,14.07
2018-10-11T18:42:37.849Z,17.58
2018-10-11T18:45:10.103Z,18.40
2018-10-11T18:47:40.217Z,19.03
2018-10-11T18:50:10.929Z,23.62
2018-10-11T18:52:42.235Z,20.25
2018-10-11T18:55:12.939Z,19.74
2018-10-11T18:57:43.760Z,21.70
2018-10-11T19:00:14.753Z,20.05
2018-10-11T19:02:45.799Z,22.58
2018-10-11T19:05:16.854Z,16.65
2018-10-11T19:07:48.299Z,20.77
2018-10-11T19:10:18.889Z,15.44
2018-10-11T19:12:49.684Z,19.70
2018-10-11T19:15:20.687Z,15.55
2018-10-11T19:17:51.555Z,18.82
2018-10-11T19:20:22.486Z,15.70
2018-10-11T19:22:53.791Z,17.52
2018-10-11T19:25:24.950Z,20.50
2018-10-11T19:27:55.685Z,19.87
2018-10-11T19:30:26.549Z,19.50
2018-10-11T19:32:57.558Z,17.45
2018-10-11T19:35:28.648Z,20.55
2018-10-11T19:37:59.586Z,19.90
2018-10-11T19:40:30.640Z,21.48
2018-10-11T19:43:01.551Z,18.85
2018-10-11T19:45:32.600Z,19.95
2018-10-11T19:48:03.533Z,23.60
2018-10-11T19:50:34.803Z,22.02
2018-10-11T19:53:06.071Z,21.23
2018-10-11T19:55:37.006Z,24.10
2018-10-11T19:58:08.151Z,21.87
2018-10-11T20:00:38.894Z,26.07
2018-10-11T20:03:09.754Z,25.15
2018-10-11T20:05:40.713Z,31.15
2018-10-11T20:08:11.687Z,27.65
2018-10-11T20:10:42.903Z,29.12
2018-10-11T20:13:13.714Z,29.42
2018-10-11T20:15:44.708Z,21.02
2018-10-11T20:18:15.568Z,19.07
2018-10-11T20:20:46.610Z,19.75
2018-10-11T20:23:17.904Z,18.30
2018-10-11T20:25:48.754Z,15.25
2018-10-11T20:28:19.698Z,22.07
2018-10-11T20:30:50.684Z,22.00
2018-10-11T20:33:21.776Z,23.87
2018-10-11T20:35:52.907Z,18.70
2018-10-11T20:38:23.681Z,20.27
2018-10-11T20:40:55.564Z,26.33
2018-10-11T20:43:25.873Z,24.95
2018-10-11T20:45:56.907Z,24.35
2018-10-11T20:48:27.798Z,23.92
2018-10-11T20:50:58.861Z,23.27
2018-10-11T20:53:29.721Z,26.73
2018-10-11T20:56:00.711Z,26.10
2018-10-11T20:58:31.672Z,25.92
2018-10-11T21:01:02.719Z,25.40
2018-10-11T21:03:33.953Z,23.85
2018-10-11T21:06:04.881Z,26.68
2018-10-11T21:08:35.680Z,22.45
2018-10-11T21:11:06.672Z,28.15
2018-10-11T21:13:37.538Z,24.40
2018-10-11T21:16:08.570Z,26.52
2018-10-11T21:18:39.411Z,23.85
2018-10-11T21:21:10.816Z,31.50
2018-10-11T21:23:41.626Z,25.65
2018-10-11T21:26:12.680Z,30.72
2018-10-11T21:28:43.607Z,28.87
2018-10-11T21:31:14.760Z,33.78
2018-10-11T21:33:45.625Z,32.80
2018-10-11T21:36:16.525Z,42.60
2018-10-11T21:38:47.711Z,44.77
2018-10-11T21:41:18.628Z,54.33
2018-10-11T21:43:49.509Z,51.75
2018-10-11T21:46:20.671Z,58.20
2018-10-11T21:48:51.794Z,45.05
2018-10-11T21:51:22.714Z,43.08
2018-10-11T21:53:53.474Z,34.45
2018-10-11T21:56:24.871Z,35.46
2018-10-11T21:58:55.843Z,36.55
2018-10-11T22:01:26.840Z,43.85
2018-10-11T22:03:57.825Z,46.92
2018-10-11T22:06:28.983Z,48.48
2018-10-11T22:08:59.660Z,43.25
2018-10-11T22:11:30.632Z,40.40
2018-10-11T22:14:01.549Z,37.03
2018-10-11T22:16:32.554Z,39.65
2018-10-11T22:19:03.478Z,36.23
2018-10-11T22:21:34.861Z,37.38
2018-10-11T22:24:05.727Z,44.55
2018-10-11T22:26:36.768Z,44.03
2018-10-11T22:29:08.711Z,36.50
2018-10-11T22:31:38.668Z,38.00
2018-10-11T22:34:09.592Z,40.90
2018-10-11T22:36:40.656Z,43.23
2018-10-11T22:39:12.448Z,48.35
2018-10-11T22:41:42.870Z,43.25
2018-10-11T22:44:20.326Z,39.90
2018-10-11T22:46:50.288Z,43.00
2018-10-11T22:49:20.114Z,47.07
2018-10-11T22:51:49.974Z,52.33
2018-10-11T22:54:20.051Z,52.07
2018-10-11T22:56:50.476Z,46.47
2018-10-11T22:59:20.612Z,48.70
2018-10-11T23:01:50.486Z,45.87
2018-10-11T23:04:21.470Z,47.70
2018-10-11T23:06:52.716Z,44.60
2018-10-11T23:09:23.609Z,47.88
2018-10-11T23:11:54.469Z,54.03
2018-10-11T23:14:25.800Z,48.94
2018-10-11T23:16:56.619Z,48.10
2018-10-11T23:19:27.932Z,50.63
2018-10-11T23:21:58.599Z,51.58
2018-10-11T23:24:29.502Z,56.90
2018-10-11T23:27:00.346Z,49.85
2018-10-11T23:29:31.905Z,54.32
2018-10-11T23:32:02.790Z,55.20
2018-10-11T23:34:34.228Z,52.18
2018-10-11T23:37:04.804Z,50.66
2018-10-11T23:39:35.785Z,48.85
2018-10-11T23:42:06.670Z,47.60
2018-10-11T23:44:37.724Z,48.65
2018-10-11T23:47:08.641Z,51.90
2018-10-11T23:49:39.579Z,48.60
2018-10-11T23:52:10.417Z,51.95
2018-10-11T23:54:42.038Z,51.94
2018-10-11T23:57:12.687Z,51.02
2018-10-11T23:59:43.696Z,51.58
